Time;durP1;ratioP1;P1;durP2;ratioP2;P2;SDS_P1;SDS_P2;PMS_P1;PMS_P2;Temp;Humidity;BMP_temperature;BMP_pressure;BME280_temperature;BME280_humidity;BME280_pressure;Samples;Min_cycle;Max_cycle;Signal;HPM_P1;HPM_P2
2024/01/18 00:00:23;;;;;;;84.63;40.22;;;;;;;;;;5006717;28;20128;-76
2024/01/18 00:02:49;;;;;;;77.68;39.85;;;;;;;;;;5001977;28;20018;-79
2024/01/18 00:05:16;;;;;;;76.47;38.83;;;;;;;;;;5004336;28;20030;-76
2024/01/18 00:07:42;;;;;;;81.25;38.42;;;;;;;;;;5009533;28;20298;-77
2024/01/18 00:10:10;;;;;;;89.78;41.00;;;;;;;;;;4999438;28;20344;-78
2024/01/18 00:12:37;;;;;;;88.93;38.65;;;;;;;;;;4995661;28;20034;-76
2024/01/18 00:15:05;;;;;;;88.65;39.28;;;;;;;;;;5008896;28;20038;-76
2024/01/18 00:17:32;;;;;;;78.55;38.75;;;;;;;;;;5007662;28;20061;-77
2024/01/18 00:19:58;;;;;;;87.00;37.95;;;;;;;;;;4998249;28;20053;-78
2024/01/18 00:22:24;;;;;;;79.80;39.00;;;;;;;;;;5010184;28;20053;-76
2024/01/18 00:24:51;;;;;;;83.72;38.67;;;;;;;;;;4995674;28;20034;-79
2024/01/18 00:27:18;;;;;;;89.43;39.40;;;;;;;;;;5013838;28;20056;-78
2024/01/18 00:29:44;;;;;;;117.55;42.65;;;;;;;;;;5002740;28;20030;-77
2024/01/18 00:32:10;;;;;;;167.80;49.55;;;;;;;;;;5005655;28;20116;-78
2024/01/18 00:34:36;;;;;;;118.05;46.90;;;;;;;;;;5007116;28;20566;-78
2024/01/18 00:37:03;;;;;;;104.07;47.35;;;;;;;;;;4987258;28;20047;-78
2024/01/18 00:39:29;;;;;;;113.05;44.35;;;;;;;;;;5006593;28;20037;-77
2024/01/18 00:41:55;;;;;;;86.85;36.92;;;;;;;;;;5004696;28;20135;-77
2024/01/18 00:44:21;;;;;;;92.35;38.25;;;;;;;;;;4993272;28;20027;-77
2024/01/18 00:46:47;;;;;;;79.43;37.38;;;;;;;;;;4995003;28;20056;-77
2024/01/18 00:49:13;;;;;;;87.20;38.08;;;;;;;;;;4994937;28;20042;-77
2024/01/18 00:51:39;;;;;;;81.50;37.20;;;;;;;;;;5025457;28;20040;-77
2024/01/18 00:54:06;;;;;;;76.90;36.95;;;;;;;;;;4997718;28;20023;-78
2024/01/18 00:56:32;;;;;;;72.28;34.70;;;;;;;;;;4996582;28;20029;-77
2024/01/18 00:58:58;;;;;;;76.68;35.38;;;;;;;;;;4990880;28;20066;-77
2024/01/18 01:01:24;;;;;;;72.15;34.05;;;;;;;;;;4999207;28;20080;-78
2024/01/18 01:03:51;;;;;;;73.05;35.08;;;;;;;;;;5006839;28;20027;-77
2024/01/18 01:06:17;;;;;;;74.80;35.63;;;;;;;;;;4992430;28;20093;-78
2024/01/18 01:08:43;;;;;;;72.47;35.55;;;;;;;;;;5009710;28;20042;-79
2024/01/18 01:11:09;;;;;;;84.50;37.58;;;;;;;;;;5009674;28;20038;-78
2024/01/18 01:13:35;;;;;;;91.65;39.30;;;;;;;;;;4994598;28;20112;-76
2024/01/18 01:16:02;;;;;;;75.30;36.75;;;;;;;;;;4995423;28;20113;-77
2024/01/18 01:18:28;;;;;;;75.53;35.28;;;;;;;;;;5012482;28;20042;-76
2024/01/18 01:20:56;;;;;;;76.43;35.00;;;;;;;;;;5011089;28;20034;-78
2024/01/18 01:23:22;;;;;;;71.80;33.80;;;;;;;;;;5001725;28;20036;-77
2024/01/18 01:25:48;;;;;;;71.82;34.03;;;;;;;;;;5014150;28;20025;-77
2024/01/18 01:28:14;;;;;;;84.72;34.65;;;;;;;;;;4996131;28;20084;-79
2024/01/18 01:30:41;;;;;;;81.40;36.58;;;;;;;;;;4996178;28;20038;-77
2024/01/18 01:33:07;;;;;;;77.70;34.33;;;;;;;;;;5003555;28;20102;-77
2024/01/18 01:35:33;;;;;;;75.63;36.10;;;;;;;;;;4990263;28;20099;-77
2024/01/18 01:37:59;;;;;;;75.45;36.03;;;;;;;;;;5011760;28;20029;-77
2024/01/18 01:40:25;;;;;;;77.10;34.97;;;;;;;;;;5025485;28;20073;-78
2024/01/18 01:42:51;;;;;;;78.95;35.42;;;;;;;;;;5007873;28;20045;-77
2024/01/18 01:45:17;;;;;;;84.78;37.22;;;;;;;;;;5010211;28;20120;-78
2024/01/18 01:47:44;;;;;;;79.60;35.00;;;;;;;;;;4987787;28;20038;-78
2024/01/18 01:50:10;;;;;;;77.45;34.47;;;;;;;;;;4991236;28;20034;-78
2024/01/18 01:52:37;;;;;;;67.65;33.28;;;;;;;;;;5004266;28;20036;-77
2024/01/18 01:55:06;;;;;;;69.97;32.97;;;;;;;;;;5007011;28;20049;-78
2024/01/18 01:57:32;;;;;;;71.72;32.22;;;;;;;;;;5000798;28;20034;-78
2024/01/18 01:59:59;;;;;;;84.07;35.88;;;;;;;;;;4996090;28;20031;-78
2024/01/18 02:02:25;;;;;;;70.28;33.70;;;;;;;;;;5012576;28;20079;-78
2024/01/18 02:04:51;;;;;;;89.25;36.90;;;;;;;;;;4989713;28;20409;-78
2024/01/18 02:07:21;;;;;;;80.53;37.78;;;;;;;;;;4991984;28;20041;-78
2024/01/18 02:09:47;;;;;;;77.50;34.60;;;;;;;;;;5008627;28;20037;-77
2024/01/18 02:12:14;;;;;;;75.95;33.42;;;;;;;;;;4997651;28;20029;-78
2024/01/18 02:14:40;;;;;;;63.60;30.95;;;;;;;;;;5004327;28;20414;-78
2024/01/18 02:17:07;;;;;;;63.33;29.35;;;;;;;;;;5003876;28;20018;-78
2024/01/18 02:19:33;;;;;;;67.15;29.63;;;;;;;;;;5002481;28;20037;-78
2024/01/18 02:21:59;;;;;;;63.70;28.98;;;;;;;;;;4998945;28;20122;-78
2024/01/18 02:24:31;;;;;;;61.58;29.20;;;;;;;;;;5030082;28;20034;-78
2024/01/18 02:26:57;;;;;;;63.13;28.95;;;;;;;;;;4999057;28;20034;-78
2024/01/18 02:29:24;;;;;;;70.00;29.70;;;;;;;;;;5008463;28;20391;-79
2024/01/18 02:31:50;;;;;;;64.40;29.00;;;;;;;;;;5002914;28;20076;-78
2024/01/18 02:34:17;;;;;;;61.28;29.73;;;;;;;;;;4986220;28;20126;-78
2024/01/18 02:36:43;;;;;;;58.35;28.20;;;;;;;;;;4991043;28;20034;-79
2024/01/18 02:39:10;;;;;;;59.03;28.30;;;;;;;;;;5022057;28;20015;-77
2024/01/18 02:41:37;;;;;;;66.05;30.17;;;;;;;;;;4995862;28;20134;-78
2024/01/18 02:44:03;;;;;;;58.05;29.55;;;;;;;;;;4995897;28;20050;-78
2024/01/18 02:46:33;;;;;;;65.20;30.45;;;;;;;;;;4999092;28;20049;-78
2024/01/18 02:48:59;;;;;;;70.20;31.45;;;;;;;;;;5011361;28;20049;-79
2024/01/18 02:51:26;;;;;;;65.97;29.85;;;;;;;;;;4997497;28;20048;-79
2024/01/18 02:53:52;;;;;;;64.95;30.63;;;;;;;;;;5017592;28;20026;-78
2024/01/18 02:56:19;;;;;;;68.95;31.20;;;;;;;;;;5004982;28;20026;-77
2024/01/18 02:58:45;;;;;;;68.75;32.72;;;;;;;;;;4998812;28;20117;-77
2024/01/18 03:01:11;;;;;;;63.20;30.05;;;;;;;;;;5001862;28;20129;-77
2024/01/18 03:03:37;;;;;;;67.90;30.60;;;;;;;;;;5001188;28;20053;-78
2024/01/18 03:06:03;;;;;;;68.10;32.28;;;;;;;;;;5003846;28;20030;-78
2024/01/18 03:08:30;;;;;;;67.82;31.17;;;;;;;;;;4994069;28;20399;-78
2024/01/18 03:10:56;;;;;;;58.90;30.13;;;;;;;;;;5013485;28;20483;-78
2024/01/18 03:13:22;;;;;;;70.18;32.08;;;;;;;;;;4991354;28;20042;-78
2024/01/18 03:15:50;;;;;;;68.32;32.40;;;;;;;;;;4996055;28;20026;-79
2024/01/18 03:18:16;;;;;;;72.80;33.85;;;;;;;;;;5008711;28;20049;-78
2024/01/18 03:20:42;;;;;;;70.00;32.13;;;;;;;;;;5006126;28;20165;-78
2024/01/18 03:23:08;;;;;;;61.95;30.95;;;;;;;;;;5004983;28;20093;-79
2024/01/18 03:25:34;;;;;;;73.72;30.70;;;;;;;;;;4991710;28;20456;-78
2024/01/18 03:28:01;;;;;;;61.47;28.30;;;;;;;;;;5003741;28;20026;-79
2024/01/18 03:30:27;;;;;;;58.05;26.67;;;;;;;;;;5013689;28;20065;-78
2024/01/18 03:32:56;;;;;;;62.25;28.38;;;;;;;;;;5012439;28;20037;-79
2024/01/18 03:35:22;;;;;;;57.25;26.85;;;;;;;;;;5007025;28;20456;-78
2024/01/18 03:37:48;;;;;;;57.80;26.13;;;;;;;;;;4987994;28;20089;-78
2024/01/18 03:40:14;;;;;;;65.05;26.48;;;;;;;;;;4993489;28;20036;-78
2024/01/18 03:42:43;;;;;;;51.50;23.67;;;;;;;;;;5007379;28;20076;-78
2024/01/18 03:45:10;;;;;;;55.17;24.73;;;;;;;;;;5008515;28;20395;-78
2024/01/18 03:47:36;;;;;;;50.60;23.95;;;;;;;;;;5006519;28;20070;-77
2024/01/18 03:50:03;;;;;;;51.13;22.50;;;;;;;;;;5007031;28;20099;-78
2024/01/18 03:52:29;;;;;;;46.78;20.77;;;;;;;;;;5012913;28;20031;-78
2024/01/18 03:54:55;;;;;;;52.65;21.70;;;;;;;;;;5000501;28;20467;-77
2024/01/18 03:57:21;;;;;;;42.53;21.92;;;;;;;;;;5004433;28;20532;-78
2024/01/18 03:59:47;;;;;;;48.47;21.70;;;;;;;;;;5008620;28;20054;-77
2024/01/18 04:02:15;;;;;;;43.97;22.27;;;;;;;;;;5006819;28;20402;-78
2024/01/18 04:04:41;;;;;;;33.88;19.08;;;;;;;;;;5007078;28;20395;-79
2024/01/18 04:07:07;;;;;;;38.65;18.40;;;;;;;;;;4999719;28;20031;-79
2024/01/18 04:09:33;;;;;;;41.80;18.58;;;;;;;;;;5017570;28;20049;-80
2024/01/18 04:12:00;;;;;;;48.03;20.10;;;;;;;;;;5008624;28;20117;-79
2024/01/18 04:14:26;;;;;;;47.13;18.70;;;;;;;;;;5007708;28;20054;-79
2024/01/18 04:16:52;;;;;;;41.28;18.27;;;;;;;;;;4995691;28;20037;-78
2024/01/18 04:19:18;;;;;;;32.97;16.08;;;;;;;;;;5010969;28;20021;-76
2024/01/18 04:21:44;;;;;;;36.70;15.98;;;;;;;;;;5014187;28;20034;-78
2024/01/18 04:24:10;;;;;;;37.00;16.33;;;;;;;;;;5003087;28;20065;-77
2024/01/18 04:26:37;;;;;;;33.10;16.92;;;;;;;;;;5013017;28;20034;-76
2024/01/18 04:29:04;;;;;;;37.20;17.67;;;;;;;;;;5008594;28;20481;-78
2024/01/18 04:31:30;;;;;;;37.85;15.93;;;;;;;;;;5012142;28;20076;-78
2024/01/18 04:33:56;;;;;;;42.92;15.80;;;;;;;;;;4997711;28;20042;-77
2024/01/18 04:36:22;;;;;;;38.28;15.82;;;;;;;;;;5008160;28;20034;-78
2024/01/18 04:38:48;;;;;;;32.08;14.27;;;;;;;;;;5017931;28;20450;-78
2024/01/18 04:41:15;;;;;;;26.98;14.93;;;;;;;;;;4999062;28;20038;-78
2024/01/18 04:43:41;;;;;;;31.50;14.07;;;;;;;;;;5022847;28;20047;-78
2024/01/18 04:46:09;;;;;;;31.75;13.40;;;;;;;;;;5018986;28;20120;-78
2024/01/18 04:48:36;;;;;;;30.58;13.90;;;;;;;;;;4999186;28;20035;-78
2024/01/18 04:51:03;;;;;;;34.47;14.35;;;;;;;;;;4995189;28;20034;-77
2024/01/18 04:53:30;;;;;;;38.30;14.20;;;;;;;;;;5002437;28;20096;-78
2024/01/18 04:55:56;;;;;;;35.17;14.50;;;;;;;;;;5003116;28;20034;-78
2024/01/18 04:58:22;;;;;;;35.10;13.65;;;;;;;;;;5010207;28;20209;-78
2024/01/18 05:00:48;;;;;;;33.30;14.68;;;;;;;;;;5009451;28;20045;-78
2024/01/18 05:03:14;;;;;;;30.30;13.95;;;;;;;;;;4995156;28;20031;-79
2024/01/18 05:05:41;;;;;;;34.47;14.90;;;;;;;;;;4996281;28;20395;-79
2024/01/18 05:08:08;;;;;;;26.88;14.40;;;;;;;;;;5002762;28;20121;-77
2024/01/18 05:10:34;;;;;;;28.23;12.60;;;;;;;;;;5006658;28;20037;-77
2024/01/18 05:13:00;;;;;;;30.33;13.68;;;;;;;;;;5008697;28;20216;-79
2024/01/18 05:15:27;;;;;;;27.52;14.57;;;;;;;;;;5002173;28;20240;-77
2024/01/18 05:17:54;;;;;;;29.55;13.77;;;;;;;;;;4996566;28;20414;-78
2024/01/18 05:20:20;;;;;;;27.27;12.75;;;;;;;;;;4998637;28;20486;-78
2024/01/18 05:22:47;;;;;;;28.48;13.30;;;;;;;;;;5003733;28;20054;-77
2024/01/18 05:25:13;;;;;;;30.52;13.25;;;;;;;;;;5001378;28;20038;-77
2024/01/18 05:27:41;;;;;;;33.22;13.57;;;;;;;;;;4992967;28;20105;-78
2024/01/18 05:30:07;;;;;;;28.60;13.73;;;;;;;;;;5015891;28;20061;-78
2024/01/18 05:32:34;;;;;;;25.55;13.48;;;;;;;;;;5010286;28;20053;-78
2024/01/18 05:35:04;;;;;;;32.67;14.45;;;;;;;;;;5008536;28;20333;-79
2024/01/18 05:37:31;;;;;;;47.97;16.05;;;;;;;;;;4996814;28;20038;-80
2024/01/18 05:39:57;;;;;;;33.17;15.90;;;;;;;;;;5011929;28;20030;-76
2024/01/18 05:42:23;;;;;;;27.33;14.30;;;;;;;;;;5003345;28;20037;-78
2024/01/18 05:44:50;;;;;;;34.85;14.02;;;;;;;;;;5011508;28;20038;-77
2024/01/18 05:47:16;;;;;;;29.23;14.75;;;;;;;;;;4992485;28;20045;-77
2024/01/18 05:49:42;;;;;;;30.80;14.10;;;;;;;;;;4998833;28;20041;-78
2024/01/18 05:52:08;;;;;;;36.45;16.08;;;;;;;;;;4997361;28;20164;-78
2024/01/18 05:54:34;;;;;;;32.38;13.88;;;;;;;;;;5026564;28;20454;-78
2024/01/18 05:57:01;;;;;;;30.55;14.15;;;;;;;;;;5007374;28;20030;-79
2024/01/18 05:59:28;;;;;;;20.33;12.93;;;;;;;;;;5005044;28;20037;-78
2024/01/18 06:01:54;;;;;;;27.88;12.07;;;;;;;;;;4996736;28;20071;-78
2024/01/18 06:04:21;;;;;;;25.10;12.30;;;;;;;;;;5009961;28;20022;-78
2024/01/18 06:06:47;;;;;;;34.67;14.27;;;;;;;;;;5005910;28;20034;-77
2024/01/18 06:09:16;;;;;;;28.15;12.00;;;;;;;;;;5007139;28;20037;-77
2024/01/18 06:11:46;;;;;;;22.58;11.57;;;;;;;;;;5007468;28;20367;-77
2024/01/18 06:14:12;;;;;;;28.67;13.55;;;;;;;;;;4995091;28;20126;-77
2024/01/18 06:16:38;;;;;;;23.80;12.07;;;;;;;;;;5020896;28;20038;-78
2024/01/18 06:19:05;;;;;;;17.38;10.57;;;;;;;;;;5022314;28;20316;-79
2024/01/18 06:21:31;;;;;;;25.85;11.18;;;;;;;;;;5005868;28;20034;-80
2024/01/18 06:23:58;;;;;;;18.23;10.45;;;;;;;;;;5009664;28;20040;-77
2024/01/18 06:26:24;;;;;;;21.90;11.25;;;;;;;;;;5012449;28;20037;-79
2024/01/18 06:28:50;;;;;;;17.25;9.68;;;;;;;;;;5006308;28;20022;-77
2024/01/18 06:31:19;;;;;;;21.27;10.05;;;;;;;;;;5006472;28;20037;-80
2024/01/18 06:33:45;;;;;;;22.77;9.80;;;;;;;;;;5002631;28;20026;-78
2024/01/18 06:36:14;;;;;;;18.83;9.50;;;;;;;;;;5005485;28;20026;-78
2024/01/18 06:38:40;;;;;;;23.33;9.30;;;;;;;;;;5000154;28;20535;-77
2024/01/18 06:41:06;;;;;;;20.65;9.18;;;;;;;;;;5002562;28;20117;-77
2024/01/18 06:43:33;;;;;;;16.25;9.40;;;;;;;;;;5000169;28;20088;-76
2024/01/18 06:45:59;;;;;;;22.40;10.48;;;;;;;;;;5005458;28;20053;-77
2024/01/18 06:48:25;;;;;;;17.70;9.02;;;;;;;;;;4989194;28;20049;-77
2024/01/18 06:50:51;;;;;;;18.25;8.82;;;;;;;;;;4995512;28;20081;-76
2024/01/18 06:53:18;;;;;;;21.63;9.65;;;;;;;;;;5016826;28;20065;-79
2024/01/18 06:55:44;;;;;;;18.65;8.68;;;;;;;;;;5011613;28;20050;-79
2024/01/18 06:58:10;;;;;;;23.13;10.85;;;;;;;;;;5021845;28;20081;-78
2024/01/18 07:00:36;;;;;;;23.48;12.90;;;;;;;;;;5005920;28;20033;-77
2024/01/18 07:03:02;;;;;;;23.17;13.07;;;;;;;;;;4999985;28;20034;-77
2024/01/18 07:05:29;;;;;;;29.38;12.77;;;;;;;;;;5007663;28;20022;-79
2024/01/18 07:07:55;;;;;;;23.80;12.23;;;;;;;;;;5010580;28;20034;-79
2024/01/18 07:10:21;;;;;;;24.42;11.98;;;;;;;;;;5013231;28;20492;-79
2024/01/18 07:12:47;;;;;;;21.63;11.63;;;;;;;;;;4997348;28;20535;-78
2024/01/18 07:15:13;;;;;;;26.20;11.50;;;;;;;;;;5004399;28;20034;-79
2024/01/18 07:17:40;;;;;;;19.63;10.50;;;;;;;;;;4988057;28;20091;-78
2024/01/18 07:20:06;;;;;;;16.85;10.15;;;;;;;;;;4994292;28;20034;-77
2024/01/18 07:22:33;;;;;;;26.40;10.23;;;;;;;;;;5007686;28;20061;-77
2024/01/18 07:24:59;;;;;;;17.35;9.27;;;;;;;;;;5007018;28;20060;-77
2024/01/18 07:27:25;;;;;;;21.55;10.23;;;;;;;;;;4994415;28;20108;-78
2024/01/18 07:29:51;;;;;;;18.75;9.43;;;;;;;;;;5007582;28;20103;-79
2024/01/18 07:32:17;;;;;;;19.80;9.32;;;;;;;;;;4991934;28;20397;-77
2024/01/18 07:34:43;;;;;;;19.77;9.52;;;;;;;;;;5023836;28;20021;-78
2024/01/18 07:37:13;;;;;;;23.48;9.90;;;;;;;;;;5015706;28;20136;-79
2024/01/18 07:39:40;;;;;;;24.95;10.38;;;;;;;;;;5004201;28;20133;-77
2024/01/18 07:42:06;;;;;;;20.15;11.25;;;;;;;;;;4998176;28;20093;-78
2024/01/18 07:44:33;;;;;;;23.35;11.32;;;;;;;;;;5001613;28;20088;-79
2024/01/18 07:46:59;;;;;;;25.85;12.93;;;;;;;;;;5009324;28;20031;-77
2024/01/18 07:49:25;;;;;;;28.10;12.70;;;;;;;;;;5007264;28;20041;-79
2024/01/18 07:51:52;;;;;;;22.85;13.20;;;;;;;;;;5013763;28;20072;-80
2024/01/18 07:54:19;;;;;;;30.17;13.23;;;;;;;;;;5035561;28;20053;-82
2024/01/18 07:56:45;;;;;;;21.30;13.13;;;;;;;;;;5011594;28;20052;-79
2024/01/18 07:59:12;;;;;;;25.05;13.23;;;;;;;;;;5004117;28;20042;-77
2024/01/18 08:01:40;;;;;;;27.38;13.98;;;;;;;;;;4999205;28;20395;-78
2024/01/18 08:04:06;;;;;;;28.15;13.68;;;;;;;;;;5003021;28;20475;-78
2024/01/18 08:06:32;;;;;;;29.80;15.68;;;;;;;;;;5025482;28;20021;-77
2024/01/18 08:08:58;;;;;;;32.03;15.88;;;;;;;;;;5016446;28;20048;-78
2024/01/18 08:11:25;;;;;;;38.35;17.70;;;;;;;;;;4978150;28;20491;-80
2024/01/18 08:13:51;;;;;;;28.55;14.85;;;;;;;;;;5017664;28;20050;-79
2024/01/18 08:16:18;;;;;;;40.35;16.80;;;;;;;;;;5014249;28;20034;-77
2024/01/18 08:18:44;;;;;;;29.10;14.75;;;;;;;;;;5017876;28;20026;-78
2024/01/18 08:21:10;;;;;;;40.38;16.27;;;;;;;;;;5008500;28;20108;-78
2024/01/18 08:23:36;;;;;;;35.45;16.80;;;;;;;;;;5010553;28;20066;-77
2024/01/18 08:26:02;;;;;;;32.95;17.48;;;;;;;;;;5000209;28;20026;-79
2024/01/18 08:28:28;;;;;;;34.67;15.95;;;;;;;;;;5015946;28;20041;-79
2024/01/18 08:30:55;;;;;;;28.25;15.43;;;;;;;;;;5015845;28;20046;-81
2024/01/18 08:33:21;;;;;;;35.33;22.27;;;;;;;;;;5011072;28;20462;-79
2024/01/18 08:35:48;;;;;;;31.15;16.45;;;;;;;;;;5008194;28;20026;-79
2024/01/18 08:38:14;;;;;;;27.38;17.20;;;;;;;;;;5001413;28;20034;-78
2024/01/18 08:40:40;;;;;;;31.92;16.83;;;;;;;;;;5004380;28;20022;-77
2024/01/18 08:43:06;;;;;;;29.77;14.90;;;;;;;;;;5005633;28;20030;-78
2024/01/18 08:45:33;;;;;;;33.30;16.13;;;;;;;;;;4996467;28;20109;-79
2024/01/18 08:48:00;;;;;;;27.98;16.88;;;;;;;;;;5007831;28;20030;-78
2024/01/18 08:50:26;;;;;;;38.03;19.20;;;;;;;;;;5004168;28;20032;-78
2024/01/18 08:52:52;;;;;;;38.90;17.85;;;;;;;;;;5000035;28;20504;-78
2024/01/18 08:55:19;;;;;;;30.73;17.15;;;;;;;;;;5006130;28;20053;-78
2024/01/18 08:57:46;;;;;;;31.25;16.58;;;;;;;;;;5003059;28;20451;-77
2024/01/18 09:00:13;;;;;;;27.80;16.98;;;;;;;;;;4998531;28;20494;-79
2024/01/18 09:02:42;;;;;;;47.78;18.75;;;;;;;;;;5008921;28;20108;-77
2024/01/18 09:05:09;;;;;;;35.67;20.10;;;;;;;;;;4990753;28;20561;-78
2024/01/18 09:07:35;;;;;;;38.67;19.13;;;;;;;;;;4996906;28;20419;-78
2024/01/18 09:10:01;;;;;;;37.60;18.80;;;;;;;;;;4998349;28;20065;-78
2024/01/18 09:12:27;;;;;;;28.27;17.40;;;;;;;;;;5017475;28;20147;-78
2024/01/18 09:14:54;;;;;;;31.27;15.70;;;;;;;;;;4993085;28;20104;-78
2024/01/18 09:17:20;;;;;;;25.73;13.57;;;;;;;;;;4993888;28;20399;-77
2024/01/18 09:19:47;;;;;;;20.23;11.63;;;;;;;;;;5010030;28;20117;-78
2024/01/18 09:22:13;;;;;;;27.70;11.27;;;;;;;;;;5002747;28;20495;-78
2024/01/18 09:24:39;;;;;;;21.38;11.05;;;;;;;;;;5005913;28;20045;-78
2024/01/18 09:27:06;;;;;;;17.63;9.60;;;;;;;;;;4996721;28;20499;-78
2024/01/18 09:29:32;;;;;;;17.88;10.55;;;;;;;;;;5005705;28;20034;-77
2024/01/18 09:31:58;;;;;;;26.75;10.88;;;;;;;;;;4998420;28;20514;-78
2024/01/18 09:34:24;;;;;;;18.38;9.82;;;;;;;;;;5006426;28;20412;-78
2024/01/18 09:36:50;;;;;;;19.67;11.10;;;;;;;;;;5000228;28;20096;-77
2024/01/18 09:39:16;;;;;;;24.00;10.75;;;;;;;;;;5010903;28;20094;-77
2024/01/18 09:41:43;;;;;;;14.32;8.85;;;;;;;;;;5004577;28;20173;-77
2024/01/18 09:44:13;;;;;;;17.85;8.40;;;;;;;;;;5004155;28;20042;-77
2024/01/18 09:46:41;;;;;;;17.10;9.05;;;;;;;;;;5000954;28;20032;-77
2024/01/18 09:49:07;;;;;;;19.00;8.77;;;;;;;;;;5014007;28;20042;-76
2024/01/18 09:51:33;;;;;;;16.73;7.93;;;;;;;;;;5007073;28;20471;-76
2024/01/18 09:54:00;;;;;;;13.90;8.30;;;;;;;;;;5007183;28;20442;-76
2024/01/18 09:56:28;;;;;;;12.65;7.80;;;;;;;;;;5020710;28;20060;-78
2024/01/18 09:58:55;;;;;;;12.43;7.90;;;;;;;;;;5011782;28;20033;-77
2024/01/18 10:01:23;;;;;;;19.90;7.78;;;;;;;;;;5006852;28;20079;-78
2024/01/18 10:03:50;;;;;;;17.67;8.27;;;;;;;;;;5008482;28;20030;-78
2024/01/18 10:06:19;;;;;;;14.32;7.50;;;;;;;;;;5000821;28;20050;-77
2024/01/18 10:08:47;;;;;;;12.48;7.18;;;;;;;;;;5002754;28;20053;-75
2024/01/18 10:11:13;;;;;;;12.52;7.20;;;;;;;;;;5004171;28;20108;-77
2024/01/18 10:13:55;;;;;;;16.25;6.40;;;;;;;;;;4994239;28;20077;-75
2024/01/18 10:16:32;;;;;;;20.83;7.35;;;;;;;;;;5012405;28;20030;-76
2024/01/18 10:19:00;;;;;;;13.00;5.70;;;;;;;;;;5008411;28;20076;-77
2024/01/18 10:21:26;;;;;;;19.00;5.32;;;;;;;;;;5006493;28;20179;-76
2024/01/18 10:23:54;;;;;;;15.02;5.57;;;;;;;;;;4996585;28;20034;-77
2024/01/18 10:26:27;;;;;;;14.40;5.35;;;;;;;;;;4999344;28;20053;-78
2024/01/18 10:28:53;;;;;;;10.50;4.35;;;;;;;;;;5029472;28;20038;-78
2024/01/18 10:31:19;;;;;;;20.52;4.43;;;;;;;;;;5001292;28;20120;-76
2024/01/18 10:33:48;;;;;;;9.90;4.07;;;;;;;;;;4987457;28;20077;-78
2024/01/18 10:36:15;;;;;;;10.48;3.15;;;;;;;;;;5009610;28;20030;-77
2024/01/18 10:38:41;;;;;;;14.48;3.83;;;;;;;;;;5008090;28;20088;-78
2024/01/18 10:41:08;;;;;;;13.40;3.63;;;;;;;;;;5001435;28;20303;-78
2024/01/18 10:43:35;;;;;;;5.75;3.00;;;;;;;;;;5017249;28;20029;-79
2024/01/18 10:46:03;;;;;;;8.73;2.78;;;;;;;;;;5015111;28;20088;-77
2024/01/18 10:48:33;;;;;;;11.13;3.10;;;;;;;;;;5009338;28;20034;-77
2024/01/18 10:51:01;;;;;;;7.90;2.60;;;;;;;;;;5003681;28;20456;-77
2024/01/18 10:53:33;;;;;;;8.07;3.35;;;;;;;;;;5038139;28;20089;-76
2024/01/18 10:55:59;;;;;;;5.13;2.20;;;;;;;;;;5005335;28;20028;-78
2024/01/18 10:58:26;;;;;;;7.55;2.90;;;;;;;;;;5009783;28;20033;-78
2024/01/18 11:00:53;;;;;;;7.53;1.92;;;;;;;;;;5008123;28;20045;-77
2024/01/18 11:03:19;;;;;;;5.30;2.05;;;;;;;;;;4998795;28;20032;-77
2024/01/18 11:05:45;;;;;;;6.03;1.90;;;;;;;;;;5008543;28;20258;-78
2024/01/18 11:08:12;;;;;;;4.85;2.28;;;;;;;;;;5013474;28;20030;-77
2024/01/18 11:10:39;;;;;;;5.32;2.05;;;;;;;;;;5001881;28;20048;-77
2024/01/18 11:13:06;;;;;;;5.75;1.95;;;;;;;;;;5019380;28;20034;-77
2024/01/18 11:15:33;;;;;;;7.45;2.03;;;;;;;;;;4991181;28;20045;-75
2024/01/18 11:18:09;;;;;;;10.50;2.05;;;;;;;;;;5006792;28;20026;-78
2024/01/18 11:20:35;;;;;;;9.68;2.03;;;;;;;;;;4998721;28;20234;-78
2024/01/18 11:23:02;;;;;;;6.35;2.53;;;;;;;;;;5008263;28;20034;-75
2024/01/18 11:25:32;;;;;;;7.43;2.03;;;;;;;;;;4996441;28;20034;-77
2024/01/18 11:28:00;;;;;;;;;;;;;;;;;;5003771;28;20042;-78
2024/01/18 11:30:34;;;;;;;9.68;2.30;;;;;;;;;;5002288;28;19930;-76
2024/01/18 11:33:01;;;;;;;5.45;1.88;;;;;;;;;;5005318;28;20042;-77
2024/01/18 11:35:27;;;;;;;6.20;1.48;;;;;;;;;;4995918;28;20045;-77
2024/01/18 11:38:13;;;;;;;5.50;1.60;;;;;;;;;;5026004;28;20363;-78
2024/01/18 11:40:39;;;;;;;5.50;1.52;;;;;;;;;;5008442;28;20024;-77
2024/01/18 11:43:06;;;;;;;3.95;1.10;;;;;;;;;;5007727;28;20052;-77
2024/01/18 11:45:32;;;;;;;3.75;0.90;;;;;;;;;;4995665;28;20060;-76
2024/01/18 11:47:59;;;;;;;4.65;1.08;;;;;;;;;;5009302;28;20044;-77
2024/01/18 11:50:26;;;;;;;5.65;1.23;;;;;;;;;;5013159;28;20033;-76
2024/01/18 11:52:52;;;;;;;5.35;0.90;;;;;;;;;;5011151;28;20068;-76
2024/01/18 11:55:19;;;;;;;4.60;0.80;;;;;;;;;;5003491;28;20071;-76
2024/01/18 11:57:50;;;;;;;10.05;1.50;;;;;;;;;;5004773;28;20464;-76
2024/01/18 12:00:16;;;;;;;3.92;1.33;;;;;;;;;;4989931;28;20100;-76
2024/01/18 12:02:43;;;;;;;4.85;1.42;;;;;;;;;;5005786;28;20049;-77
2024/01/18 12:05:10;;;;;;;2.90;1.27;;;;;;;;;;5005000;28;20027;-75
2024/01/18 12:07:38;;;;;;;5.07;1.27;;;;;;;;;;4997786;28;20081;-75
2024/01/18 12:10:05;;;;;;;6.50;1.30;;;;;;;;;;5034063;28;20034;-77
2024/01/18 12:12:31;;;;;;;7.43;1.25;;;;;;;;;;5005449;28;20062;-77
2024/01/18 12:14:58;;;;;;;10.20;2.08;;;;;;;;;;5005021;28;20050;-76
2024/01/18 12:17:24;;;;;;;5.07;1.58;;;;;;;;;;5001650;28;20018;-77
2024/01/18 12:19:52;;;;;;;7.93;1.80;;;;;;;;;;5004927;28;20026;-76
2024/01/18 12:22:19;;;;;;;6.07;1.88;;;;;;;;;;4995156;28;20073;-76
2024/01/18 12:24:48;;;;;;;9.30;2.10;;;;;;;;;;5005749;28;20648;-77
2024/01/18 12:27:14;;;;;;;6.53;1.70;;;;;;;;;;4997952;28;20021;-77
2024/01/18 12:29:41;;;;;;;9.88;2.17;;;;;;;;;;4993553;28;20087;-77
2024/01/18 12:32:08;;;;;;;11.15;2.08;;;;;;;;;;4986447;28;20128;-77
2024/01/18 12:34:35;;;;;;;9.23;1.75;;;;;;;;;;4998112;28;20037;-76
2024/01/18 12:37:05;;;;;;;6.90;1.65;;;;;;;;;;5016628;28;20025;-76
2024/01/18 12:39:33;;;;;;;4.65;1.50;;;;;;;;;;5013037;28;20094;-76
2024/01/18 12:41:59;;;;;;;5.18;1.40;;;;;;;;;;5047335;28;20048;-76
2024/01/18 12:44:26;;;;;;;4.40;1.40;;;;;;;;;;5011811;28;20030;-77
2024/01/18 12:46:54;;;;;;;3.03;1.27;;;;;;;;;;5010012;28;20041;-76
2024/01/18 12:49:21;;;;;;;3.00;1.42;;;;;;;;;;5012299;28;20037;-77
2024/01/18 12:51:58;;;;;;;8.85;1.52;;;;;;;;;;5007508;28;20042;-74
2024/01/18 12:54:25;;;;;;;4.47;1.50;;;;;;;;;;4993069;28;20030;-74
2024/01/18 12:56:57;;;;;;;3.90;1.40;;;;;;;;;;5002720;28;20029;-75
2024/01/18 12:59:25;;;;;;;6.30;2.10;;;;;;;;;;5010339;28;20041;-74
2024/01/18 13:01:51;;;;;;;3.50;1.05;;;;;;;;;;5008042;28;20029;-77
2024/01/18 13:04:21;;;;;;;3.00;0.90;;;;;;;;;;5023108;28;20064;-78
2024/01/18 13:06:51;;;;;;;2.20;1.10;;;;;;;;;;5011941;28;20094;-78
2024/01/18 13:09:19;;;;;;;4.35;1.20;;;;;;;;;;4999294;28;20109;-77
2024/01/18 13:11:45;;;;;;;3.83;1.25;;;;;;;;;;4989901;28;20034;-77
2024/01/18 13:14:12;;;;;;;3.65;1.30;;;;;;;;;;5004305;28;20120;-75
2024/01/18 13:16:42;;;;;;;4.05;1.88;;;;;;;;;;4998863;28;20112;-77
2024/01/18 13:19:13;;;;;;;1.83;0.80;;;;;;;;;;5017359;28;20494;-77
2024/01/18 13:21:43;;;;;;;5.35;1.45;;;;;;;;;;4996009;28;20033;-77
2024/01/18 13:24:10;;;;;;;3.13;1.27;;;;;;;;;;4993406;28;20033;-77
2024/01/18 13:26:36;;;;;;;7.95;1.20;;;;;;;;;;4992482;28;20290;-77
2024/01/18 13:29:06;;;;;;;4.03;1.50;;;;;;;;;;4996056;28;20092;-80
2024/01/18 13:31:32;;;;;;;2.03;1.10;;;;;;;;;;4999448;28;20066;-77
2024/01/18 13:33:58;;;;;;;3.35;1.10;;;;;;;;;;5007637;28;20026;-77
2024/01/18 13:36:25;;;;;;;6.95;1.80;;;;;;;;;;5017603;28;20046;-77
2024/01/18 13:38:51;;;;;;;8.57;1.98;;;;;;;;;;5006417;28;20022;-76
2024/01/18 13:41:18;;;;;;;4.80;1.40;;;;;;;;;;5007501;28;20113;-77
2024/01/18 13:43:44;;;;;;;7.07;2.70;;;;;;;;;;5009810;28;20058;-77
2024/01/18 13:46:10;;;;;;;5.82;2.45;;;;;;;;;;4998102;28;20050;-76
2024/01/18 13:48:37;;;;;;;7.85;2.10;;;;;;;;;;5003165;28;20754;-76
2024/01/18 13:51:03;;;;;;;4.95;1.80;;;;;;;;;;5009924;28;20022;-78
2024/01/18 13:53:29;;;;;;;4.55;2.70;;;;;;;;;;4991149;28;20035;-77
2024/01/18 13:55:56;;;;;;;5.25;2.10;;;;;;;;;;4994715;28;20067;-77
2024/01/18 13:58:23;;;;;;;5.80;3.00;;;;;;;;;;5008536;28;20116;-77
2024/01/18 14:00:49;;;;;;;14.20;3.35;;;;;;;;;;4990205;28;20030;-78
2024/01/18 14:03:20;;;;;;;4.00;2.10;;;;;;;;;;5010995;28;20021;-77
2024/01/18 14:05:49;;;;;;;3.97;2.20;;;;;;;;;;5012066;28;20034;-76
2024/01/18 14:08:16;;;;;;;3.50;2.08;;;;;;;;;;5015618;28;20464;-78
2024/01/18 14:10:42;;;;;;;9.35;2.90;;;;;;;;;;5009453;28;20022;-80
2024/01/18 14:13:08;;;;;;;6.53;2.60;;;;;;;;;;5003247;28;20049;-78
2024/01/18 14:15:38;;;;;;;7.43;1.60;;;;;;;;;;5004807;28;20128;-78
2024/01/18 14:18:05;;;;;;;4.28;2.13;;;;;;;;;;5010095;28;20030;-76
2024/01/18 14:20:31;;;;;;;5.63;2.30;;;;;;;;;;5006497;28;20041;-75
2024/01/18 14:22:57;;;;;;;4.90;2.00;;;;;;;;;;4990909;28;20042;-76